sensor_id;sensor_type;location;lat;lon;timestamp;P1;durP1;ratioP1;P2;durP2;ratioP2
8213;SDS011;4148;47.974;7.824;2023-06-22T00:00:31;10.40;;;5.50;;
8213;SDS011;4148;47.974;7.824;2023-06-22T00:02:59;9.63;;;6.07;;
8213;SDS011;4148;47.974;7.824;2023-06-22T00:05:29;11.80;;;5.93;;
8213;SDS011;4148;47.974;7.824;2023-06-22T00:07:56;9.17;;;5.80;;
8213;SDS011;4148;47.974;7.824;2023-06-22T00:10:24;9.57;;;6.23;;
8213;SDS011;4148;47.974;7.824;2023-06-22T00:12:53;10.53;;;5.57;;
8213;SDS011;4148;47.974;7.824;2023-06-22T00:15:20;8.07;;;6.37;;
8213;SDS011;4148;47.974;7.824;2023-06-22T00:17:48;9.20;;;5.20;;
8213;SDS011;4148;47.974;7.824;2023-06-22T00:20:16;8.53;;;5.23;;
8213;SDS011;4148;47.974;7.824;2023-06-22T00:22:46;9.80;;;5.40;;
8213;SDS011;4148;47.974;7.824;2023-06-22T00:25:14;8.53;;;5.23;;
8213;SDS011;4148;47.974;7.824;2023-06-22T00:27:42;8.80;;;6.33;;
8213;SDS011;4148;47.974;7.824;2023-06-22T00:30:10;9.70;;;6.17;;
8213;SDS011;4148;47.974;7.824;2023-06-22T00:32:38;7.77;;;5.30;;
8213;SDS011;4148;47.974;7.824;2023-06-22T00:35:07;7.57;;;5.90;;
8213;SDS011;4148;47.974;7.824;2023-06-22T00:37:36;9.33;;;5.63;;
8213;SDS011;4148;47.974;7.824;2023-06-22T00:40:06;10.77;;;5.10;;
8213;SDS011;4148;47.974;7.824;2023-06-22T00:42:38;11.37;;;6.20;;
8213;SDS011;4148;47.974;7.824;2023-06-22T00:45:06;9.37;;;5.23;;
8213;SDS011;4148;47.974;7.824;2023-06-22T00:47:35;8.60;;;5.80;;
8213;SDS011;4148;47.974;7.824;2023-06-22T00:50:04;10.83;;;5.73;;
8213;SDS011;4148;47.974;7.824;2023-06-22T00:52:36;9.93;;;5.90;;
8213;SDS011;4148;47.974;7.824;2023-06-22T00:55:10;9.03;;;5.90;;
8213;SDS011;4148;47.974;7.824;2023-06-22T00:57:38;11.20;;;6.67;;
8213;SDS011;4148;47.974;7.824;2023-06-22T01:00:08;12.17;;;5.93;;
8213;SDS011;4148;47.974;7.824;2023-06-22T01:02:38;8.70;;;5.70;;
8213;SDS011;4148;47.974;7.824;2023-06-22T01:05:06;10.57;;;5.70;;
8213;SDS011;4148;47.974;7.824;2023-06-22T01:07:35;6.67;;;5.40;;
8213;SDS011;4148;47.974;7.824;2023-06-22T01:10:06;11.00;;;6.27;;
8213;SDS011;4148;47.974;7.824;2023-06-22T01:12:40;11.47;;;6.70;;
8213;SDS011;4148;47.974;7.824;2023-06-22T01:15:13;6.77;;;5.30;;
8213;SDS011;4148;47.974;7.824;2023-06-22T01:17:48;9.03;;;6.00;;
8213;SDS011;4148;47.974;7.824;2023-06-22T01:20:17;10.00;;;6.07;;
8213;SDS011;4148;47.974;7.824;2023-06-22T01:22:49;10.90;;;6.13;;
8213;SDS011;4148;47.974;7.824;2023-06-22T01:25:28;7.33;;;5.33;;
8213;SDS011;4148;47.974;7.824;2023-06-22T01:28:05;9.90;;;6.37;;
8213;SDS011;4148;47.974;7.824;2023-06-22T01:30:46;11.73;;;6.20;;
8213;SDS011;4148;47.974;7.824;2023-06-22T01:33:16;8.73;;;5.60;;
8213;SDS011;4148;47.974;7.824;2023-06-22T01:35:44;14.83;;;6.17;;
8213;SDS011;4148;47.974;7.824;2023-06-22T01:38:12;7.60;;;6.80;;
8213;SDS011;4148;47.974;7.824;2023-06-22T01:40:41;9.77;;;6.50;;
8213;SDS011;4148;47.974;7.824;2023-06-22T01:43:09;9.23;;;6.20;;
8213;SDS011;4148;47.974;7.824;2023-06-22T01:45:37;11.30;;;5.80;;
8213;SDS011;4148;47.974;7.824;2023-06-22T01:48:07;6.30;;;5.40;;
8213;SDS011;4148;47.974;7.824;2023-06-22T01:50:35;8.43;;;6.40;;
8213;SDS011;4148;47.974;7.824;2023-06-22T01:53:03;13.80;;;6.23;;
8213;SDS011;4148;47.974;7.824;2023-06-22T01:55:32;11.30;;;6.13;;
8213;SDS011;4148;47.974;7.824;2023-06-22T01:58:00;8.57;;;6.07;;
8213;SDS011;4148;47.974;7.824;2023-06-22T02:00:29;10.33;;;6.50;;
8213;SDS011;4148;47.974;7.824;2023-06-22T02:02:59;7.13;;;6.13;;
8213;SDS011;4148;47.974;7.824;2023-06-22T02:05:36;16.33;;;6.97;;
8213;SDS011;4148;47.974;7.824;2023-06-22T02:08:09;9.33;;;6.27;;
8213;SDS011;4148;47.974;7.824;2023-06-22T02:10:38;10.40;;;7.00;;
8213;SDS011;4148;47.974;7.824;2023-06-22T02:13:08;8.10;;;6.27;;
8213;SDS011;4148;47.974;7.824;2023-06-22T02:15:37;7.73;;;5.97;;
8213;SDS011;4148;47.974;7.824;2023-06-22T02:18:05;11.47;;;6.47;;
8213;SDS011;4148;47.974;7.824;2023-06-22T02:20:37;9.70;;;6.70;;
8213;SDS011;4148;47.974;7.824;2023-06-22T02:23:05;8.47;;;6.60;;
8213;SDS011;4148;47.974;7.824;2023-06-22T02:25:34;10.70;;;7.50;;
8213;SDS011;4148;47.974;7.824;2023-06-22T02:28:02;10.73;;;6.40;;
8213;SDS011;4148;47.974;7.824;2023-06-22T02:30:31;10.43;;;6.87;;
8213;SDS011;4148;47.974;7.824;2023-06-22T02:32:59;7.57;;;5.80;;
8213;SDS011;4148;47.974;7.824;2023-06-22T02:35:27;8.70;;;6.47;;
8213;SDS011;4148;47.974;7.824;2023-06-22T02:37:59;10.77;;;6.40;;
8213;SDS011;4148;47.974;7.824;2023-06-22T02:40:27;11.43;;;7.40;;
8213;SDS011;4148;47.974;7.824;2023-06-22T02:42:57;13.97;;;6.83;;
8213;SDS011;4148;47.974;7.824;2023-06-22T02:45:28;9.53;;;6.47;;
8213;SDS011;4148;47.974;7.824;2023-06-22T02:47:56;11.80;;;7.23;;
8213;SDS011;4148;47.974;7.824;2023-06-22T02:50:25;12.73;;;6.93;;
8213;SDS011;4148;47.974;7.824;2023-06-22T02:52:53;7.83;;;6.70;;
8213;SDS011;4148;47.974;7.824;2023-06-22T02:55:22;10.83;;;7.20;;
8213;SDS011;4148;47.974;7.824;2023-06-22T02:57:50;10.30;;;7.27;;
8213;SDS011;4148;47.974;7.824;2023-06-22T03:00:19;10.87;;;7.83;;
8213;SDS011;4148;47.974;7.824;2023-06-22T03:02:48;12.50;;;7.87;;
8213;SDS011;4148;47.974;7.824;2023-06-22T03:05:16;10.03;;;7.40;;
8213;SDS011;4148;47.974;7.824;2023-06-22T03:07:45;11.77;;;7.77;;
8213;SDS011;4148;47.974;7.824;2023-06-22T03:10:13;12.60;;;6.90;;
8213;SDS011;4148;47.974;7.824;2023-06-22T03:12:43;10.17;;;6.73;;
8213;SDS011;4148;47.974;7.824;2023-06-22T03:15:12;10.53;;;7.20;;
8213;SDS011;4148;47.974;7.824;2023-06-22T03:17:40;9.53;;;7.33;;
8213;SDS011;4148;47.974;7.824;2023-06-22T03:20:09;9.17;;;6.93;;
8213;SDS011;4148;47.974;7.824;2023-06-22T03:22:38;11.70;;;7.40;;
8213;SDS011;4148;47.974;7.824;2023-06-22T03:25:07;10.10;;;7.30;;
8213;SDS011;4148;47.974;7.824;2023-06-22T03:27:39;10.60;;;7.10;;
8213;SDS011;4148;47.974;7.824;2023-06-22T03:30:09;12.10;;;8.10;;
8213;SDS011;4148;47.974;7.824;2023-06-22T03:32:38;10.87;;;6.93;;
8213;SDS011;4148;47.974;7.824;2023-06-22T03:35:06;10.80;;;6.50;;
8213;SDS011;4148;47.974;7.824;2023-06-22T03:37:34;10.73;;;6.83;;
8213;SDS011;4148;47.974;7.824;2023-06-22T03:40:02;12.40;;;7.80;;
8213;SDS011;4148;47.974;7.824;2023-06-22T03:42:33;10.37;;;7.50;;
8213;SDS011;4148;47.974;7.824;2023-06-22T03:45:01;9.80;;;7.10;;
8213;SDS011;4148;47.974;7.824;2023-06-22T03:47:32;10.60;;;6.97;;
8213;SDS011;4148;47.974;7.824;2023-06-22T03:50:00;10.50;;;7.43;;
8213;SDS011;4148;47.974;7.824;2023-06-22T03:52:29;13.00;;;6.93;;
8213;SDS011;4148;47.974;7.824;2023-06-22T03:54:57;10.73;;;6.70;;
8213;SDS011;4148;47.974;7.824;2023-06-22T03:57:25;12.87;;;7.97;;
8213;SDS011;4148;47.974;7.824;2023-06-22T03:59:54;11.17;;;7.80;;
8213;SDS011;4148;47.974;7.824;2023-06-22T04:02:23;10.60;;;6.50;;
8213;SDS011;4148;47.974;7.824;2023-06-22T04:04:53;8.97;;;6.47;;
8213;SDS011;4148;47.974;7.824;2023-06-22T04:07:21;9.53;;;6.70;;
8213;SDS011;4148;47.974;7.824;2023-06-22T04:09:49;9.93;;;7.70;;
8213;SDS011;4148;47.974;7.824;2023-06-22T04:12:16;9.73;;;7.30;;
8213;SDS011;4148;47.974;7.824;2023-06-22T04:14:44;10.70;;;7.10;;
8213;SDS011;4148;47.974;7.824;2023-06-22T04:17:12;10.17;;;7.27;;
8213;SDS011;4148;47.974;7.824;2023-06-22T04:19:41;14.30;;;8.20;;
8213;SDS011;4148;47.974;7.824;2023-06-22T04:22:10;14.93;;;8.73;;
8213;SDS011;4148;47.974;7.824;2023-06-22T04:24:38;10.23;;;7.20;;
8213;SDS011;4148;47.974;7.824;2023-06-22T04:27:06;15.43;;;7.47;;
8213;SDS011;4148;47.974;7.824;2023-06-22T04:29:34;10.27;;;7.13;;
8213;SDS011;4148;47.974;7.824;2023-06-22T04:32:02;11.33;;;8.30;;
8213;SDS011;4148;47.974;7.824;2023-06-22T04:34:31;11.30;;;8.43;;
8213;SDS011;4148;47.974;7.824;2023-06-22T04:36:59;10.53;;;8.40;;
8213;SDS011;4148;47.974;7.824;2023-06-22T04:39:28;12.70;;;8.30;;
8213;SDS011;4148;47.974;7.824;2023-06-22T04:41:57;12.77;;;7.23;;
8213;SDS011;4148;47.974;7.824;2023-06-22T04:44:26;14.40;;;8.27;;
8213;SDS011;4148;47.974;7.824;2023-06-22T04:46:55;13.90;;;8.10;;
8213;SDS011;4148;47.974;7.824;2023-06-22T04:49:27;10.37;;;8.37;;
8213;SDS011;4148;47.974;7.824;2023-06-22T04:51:59;13.03;;;8.80;;
8213;SDS011;4148;47.974;7.824;2023-06-22T04:54:29;14.10;;;7.40;;
8213;SDS011;4148;47.974;7.824;2023-06-22T04:56:59;9.77;;;7.60;;
8213;SDS011;4148;47.974;7.824;2023-06-22T04:59:27;11.00;;;8.50;;
8213;SDS011;4148;47.974;7.824;2023-06-22T05:01:56;14.60;;;8.43;;
8213;SDS011;4148;47.974;7.824;2023-06-22T05:04:25;9.23;;;8.07;;
8213;SDS011;4148;47.974;7.824;2023-06-22T05:06:54;13.63;;;7.60;;
8213;SDS011;4148;47.974;7.824;2023-06-22T05:09:22;13.73;;;8.73;;
8213;SDS011;4148;47.974;7.824;2023-06-22T05:11:52;13.43;;;9.40;;
8213;SDS011;4148;47.974;7.824;2023-06-22T05:14:20;16.10;;;9.07;;
8213;SDS011;4148;47.974;7.824;2023-06-22T05:16:48;19.50;;;9.50;;
8213;SDS011;4148;47.974;7.824;2023-06-22T05:19:18;11.47;;;9.00;;
8213;SDS011;4148;47.974;7.824;2023-06-22T05:21:46;11.33;;;9.00;;
8213;SDS011;4148;47.974;7.824;2023-06-22T05:24:14;19.23;;;10.33;;
8213;SDS011;4148;47.974;7.824;2023-06-22T05:26:41;12.77;;;9.10;;
8213;SDS011;4148;47.974;7.824;2023-06-22T05:29:11;10.90;;;8.70;;
8213;SDS011;4148;47.974;7.824;2023-06-22T05:31:39;11.60;;;9.10;;
8213;SDS011;4148;47.974;7.824;2023-06-22T05:34:07;8.90;;;8.00;;
8213;SDS011;4148;47.974;7.824;2023-06-22T05:36:35;13.43;;;8.83;;
8213;SDS011;4148;47.974;7.824;2023-06-22T05:39:10;14.93;;;9.80;;
8213;SDS011;4148;47.974;7.824;2023-06-22T05:41:39;14.00;;;9.43;;
8213;SDS011;4148;47.974;7.824;2023-06-22T05:44:07;12.40;;;9.23;;
8213;SDS011;4148;47.974;7.824;2023-06-22T05:46:37;11.90;;;9.20;;
8213;SDS011;4148;47.974;7.824;2023-06-22T05:49:11;15.80;;;11.57;;
8213;SDS011;4148;47.974;7.824;2023-06-22T05:51:39;12.10;;;8.80;;
8213;SDS011;4148;47.974;7.824;2023-06-22T05:54:07;17.83;;;9.70;;
8213;SDS011;4148;47.974;7.824;2023-06-22T05:56:35;11.87;;;9.00;;
8213;SDS011;4148;47.974;7.824;2023-06-22T05:59:03;14.33;;;9.47;;
8213;SDS011;4148;47.974;7.824;2023-06-22T06:01:31;13.57;;;9.00;;
8213;SDS011;4148;47.974;7.824;2023-06-22T06:04:03;11.93;;;8.73;;
8213;SDS011;4148;47.974;7.824;2023-06-22T06:06:34;13.97;;;9.73;;
8213;SDS011;4148;47.974;7.824;2023-06-22T06:09:04;12.70;;;8.80;;
8213;SDS011;4148;47.974;7.824;2023-06-22T06:11:32;14.30;;;10.03;;
8213;SDS011;4148;47.974;7.824;2023-06-22T06:14:00;12.17;;;9.23;;
8213;SDS011;4148;47.974;7.824;2023-06-22T06:16:28;14.07;;;10.27;;
8213;SDS011;4148;47.974;7.824;2023-06-22T06:18:56;12.40;;;9.77;;
8213;SDS011;4148;47.974;7.824;2023-06-22T06:21:26;12.40;;;8.73;;
8213;SDS011;4148;47.974;7.824;2023-06-22T06:23:56;15.07;;;10.13;;
8213;SDS011;4148;47.974;7.824;2023-06-22T06:26:24;12.30;;;10.50;;
8213;SDS011;4148;47.974;7.824;2023-06-22T06:28:55;17.60;;;12.43;;
8213;SDS011;4148;47.974;7.824;2023-06-22T06:31:24;17.13;;;12.80;;
8213;SDS011;4148;47.974;7.824;2023-06-22T06:33:54;20.43;;;11.93;;
8213;SDS011;4148;47.974;7.824;2023-06-22T06:36:22;19.47;;;12.93;;
8213;SDS011;4148;47.974;7.824;2023-06-22T06:38:51;16.80;;;12.07;;
8213;SDS011;4148;47.974;7.824;2023-06-22T06:41:19;13.37;;;11.10;;
8213;SDS011;4148;47.974;7.824;2023-06-22T06:43:48;18.80;;;11.43;;
8213;SDS011;4148;47.974;7.824;2023-06-22T06:46:16;14.80;;;11.33;;
8213;SDS011;4148;47.974;7.824;2023-06-22T06:48:45;14.67;;;11.20;;
8213;SDS011;4148;47.974;7.824;2023-06-22T06:51:13;14.07;;;10.67;;
8213;SDS011;4148;47.974;7.824;2023-06-22T06:53:41;13.90;;;10.00;;
8213;SDS011;4148;47.974;7.824;2023-06-22T06:56:10;13.00;;;10.77;;
8213;SDS011;4148;47.974;7.824;2023-06-22T06:58:40;16.73;;;11.30;;
8213;SDS011;4148;47.974;7.824;2023-06-22T07:01:08;13.10;;;11.03;;
8213;SDS011;4148;47.974;7.824;2023-06-22T07:03:36;17.37;;;11.17;;
8213;SDS011;4148;47.974;7.824;2023-06-22T07:06:04;16.00;;;12.27;;
8213;SDS011;4148;47.974;7.824;2023-06-22T07:08:32;13.37;;;11.93;;
8213;SDS011;4148;47.974;7.824;2023-06-22T07:11:01;14.23;;;11.40;;
8213;SDS011;4148;47.974;7.824;2023-06-22T07:13:30;14.63;;;11.87;;
8213;SDS011;4148;47.974;7.824;2023-06-22T07:15:58;12.83;;;11.40;;
8213;SDS011;4148;47.974;7.824;2023-06-22T07:18:26;15.40;;;11.50;;
8213;SDS011;4148;47.974;7.824;2023-06-22T07:20:53;15.37;;;10.20;;
8213;SDS011;4148;47.974;7.824;2023-06-22T07:23:21;15.27;;;9.17;;
8213;SDS011;4148;47.974;7.824;2023-06-22T07:25:49;13.03;;;8.50;;
8213;SDS011;4148;47.974;7.824;2023-06-22T07:28:17;9.07;;;8.17;;
8213;SDS011;4148;47.974;7.824;2023-06-22T07:30:46;11.20;;;8.50;;
8213;SDS011;4148;47.974;7.824;2023-06-22T07:33:14;12.23;;;8.07;;
8213;SDS011;4148;47.974;7.824;2023-06-22T07:35:43;9.53;;;8.10;;
8213;SDS011;4148;47.974;7.824;2023-06-22T07:38:13;22.67;;;9.50;;
8213;SDS011;4148;47.974;7.824;2023-06-22T07:40:40;21.10;;;11.57;;
8213;SDS011;4148;47.974;7.824;2023-06-22T07:43:08;19.93;;;10.37;;
8213;SDS011;4148;47.974;7.824;2023-06-22T07:45:37;13.43;;;9.60;;
8213;SDS011;4148;47.974;7.824;2023-06-22T07:48:08;18.93;;;10.60;;
8213;SDS011;4148;47.974;7.824;2023-06-22T07:50:35;11.80;;;10.50;;
8213;SDS011;4148;47.974;7.824;2023-06-22T07:53:03;16.93;;;9.87;;
8213;SDS011;4148;47.974;7.824;2023-06-22T07:55:31;16.63;;;10.10;;
8213;SDS011;4148;47.974;7.824;2023-06-22T07:57:59;14.20;;;9.50;;
8213;SDS011;4148;47.974;7.824;2023-06-22T08:00:27;12.27;;;9.33;;
8213;SDS011;4148;47.974;7.824;2023-06-22T08:02:55;12.40;;;10.00;;
8213;SDS011;4148;47.974;7.824;2023-06-22T08:05:24;13.07;;;11.67;;
8213;SDS011;4148;47.974;7.824;2023-06-22T08:07:54;14.30;;;10.20;;
8213;SDS011;4148;47.974;7.824;2023-06-22T08:10:22;13.70;;;10.10;;
8213;SDS011;4148;47.974;7.824;2023-06-22T08:12:50;14.03;;;11.13;;
8213;SDS011;4148;47.974;7.824;2023-06-22T08:15:19;14.80;;;9.50;;
8213;SDS011;4148;47.974;7.824;2023-06-22T08:17:48;9.63;;;8.53;;
8213;SDS011;4148;47.974;7.824;2023-06-22T08:20:16;12.83;;;10.00;;
8213;SDS011;4148;47.974;7.824;2023-06-22T08:22:45;16.93;;;10.90;;
8213;SDS011;4148;47.974;7.824;2023-06-22T08:25:13;12.97;;;8.97;;
8213;SDS011;4148;47.974;7.824;2023-06-22T08:27:44;11.10;;;9.17;;
8213;SDS011;4148;47.974;7.824;2023-06-22T08:30:12;14.40;;;9.37;;
8213;SDS011;4148;47.974;7.824;2023-06-22T08:32:40;14.03;;;9.20;;
8213;SDS011;4148;47.974;7.824;2023-06-22T08:35:08;13.90;;;9.20;;
8213;SDS011;4148;47.974;7.824;2023-06-22T08:37:36;11.07;;;8.17;;
8213;SDS011;4148;47.974;7.824;2023-06-22T08:40:08;13.37;;;7.70;;
8213;SDS011;4148;47.974;7.824;2023-06-22T08:42:37;11.80;;;8.43;;
8213;SDS011;4148;47.974;7.824;2023-06-22T08:45:08;13.37;;;8.80;;
8213;SDS011;4148;47.974;7.824;2023-06-22T08:47:36;15.10;;;8.70;;
8213;SDS011;4148;47.974;7.824;2023-06-22T08:50:05;16.80;;;7.87;;
8213;SDS011;4148;47.974;7.824;2023-06-22T08:52:34;12.70;;;9.10;;
8213;SDS011;4148;47.974;7.824;2023-06-22T08:55:03;17.70;;;8.60;;
8213;SDS011;4148;47.974;7.824;2023-06-22T08:57:32;11.67;;;8.50;;
8213;SDS011;4148;47.974;7.824;2023-06-22T09:00:00;11.47;;;8.50;;
8213;SDS011;4148;47.974;7.824;2023-06-22T09:02:31;12.17;;;8.20;;
8213;SDS011;4148;47.974;7.824;2023-06-22T09:04:59;13.13;;;9.10;;
8213;SDS011;4148;47.974;7.824;2023-06-22T09:07:30;15.07;;;8.20;;
8213;SDS011;4148;47.974;7.824;2023-06-22T09:10:00;11.30;;;8.50;;
8213;SDS011;4148;47.974;7.824;2023-06-22T09:12:30;9.37;;;8.30;;
8213;SDS011;4148;47.974;7.824;2023-06-22T09:15:00;11.80;;;8.63;;
8213;SDS011;4148;47.974;7.824;2023-06-22T09:17:29;10.00;;;9.00;;
8213;SDS011;4148;47.974;7.824;2023-06-22T09:19:57;10.43;;;8.37;;
8213;SDS011;4148;47.974;7.824;2023-06-22T09:22:25;8.80;;;7.90;;
8213;SDS011;4148;47.974;7.824;2023-06-22T09:24:55;11.83;;;7.80;;
8213;SDS011;4148;47.974;7.824;2023-06-22T09:27:23;10.33;;;7.63;;
8213;SDS011;4148;47.974;7.824;2023-06-22T09:29:52;19.23;;;8.27;;
8213;SDS011;4148;47.974;7.824;2023-06-22T09:32:20;12.80;;;8.10;;
8213;SDS011;4148;47.974;7.824;2023-06-22T09:34:48;11.83;;;7.97;;
8213;SDS011;4148;47.974;7.824;2023-06-22T09:37:15;16.13;;;8.20;;
8213;SDS011;4148;47.974;7.824;2023-06-22T09:39:43;12.83;;;8.30;;
8213;SDS011;4148;47.974;7.824;2023-06-22T09:42:11;13.07;;;8.80;;
8213;SDS011;4148;47.974;7.824;2023-06-22T09:44:39;11.60;;;7.60;;
8213;SDS011;4148;47.974;7.824;2023-06-22T09:47:08;11.00;;;7.57;;
8213;SDS011;4148;47.974;7.824;2023-06-22T09:49:36;12.43;;;8.27;;
8213;SDS011;4148;47.974;7.824;2023-06-22T09:52:14;9.00;;;7.97;;
8213;SDS011;4148;47.974;7.824;2023-06-22T09:54:42;12.13;;;8.13;;
8213;SDS011;4148;47.974;7.824;2023-06-22T09:57:09;15.70;;;9.57;;
8213;SDS011;4148;47.974;7.824;2023-06-22T09:59:37;13.83;;;8.97;;
8213;SDS011;4148;47.974;7.824;2023-06-22T10:02:06;14.50;;;8.80;;
8213;SDS011;4148;47.974;7.824;2023-06-22T10:04:36;14.80;;;8.10;;
8213;SDS011;4148;47.974;7.824;2023-06-22T10:07:04;10.03;;;7.70;;
8213;SDS011;4148;47.974;7.824;2023-06-22T10:09:32;10.70;;;7.17;;
8213;SDS011;4148;47.974;7.824;2023-06-22T10:12:00;11.60;;;7.77;;
8213;SDS011;4148;47.974;7.824;2023-06-22T10:14:28;11.80;;;7.47;;
8213;SDS011;4148;47.974;7.824;2023-06-22T10:16:56;9.50;;;7.60;;
8213;SDS011;4148;47.974;7.824;2023-06-22T10:19:25;12.13;;;8.13;;
8213;SDS011;4148;47.974;7.824;2023-06-22T10:21:54;15.57;;;8.70;;
8213;SDS011;4148;47.974;7.824;2023-06-22T10:24:22;11.90;;;9.00;;
8213;SDS011;4148;47.974;7.824;2023-06-22T10:26:50;10.73;;;7.70;;
8213;SDS011;4148;47.974;7.824;2023-06-22T10:29:18;13.60;;;8.80;;
8213;SDS011;4148;47.974;7.824;2023-06-22T10:31:47;10.50;;;7.77;;
8213;SDS011;4148;47.974;7.824;2023-06-22T10:34:15;12.50;;;7.70;;
8213;SDS011;4148;47.974;7.824;2023-06-22T10:36:43;11.10;;;8.73;;
8213;SDS011;4148;47.974;7.824;2023-06-22T10:39:14;9.40;;;8.40;;
8213;SDS011;4148;47.974;7.824;2023-06-22T10:41:42;14.73;;;7.97;;
8213;SDS011;4148;47.974;7.824;2023-06-22T10:44:11;9.67;;;8.23;;
8213;SDS011;4148;47.974;7.824;2023-06-22T10:46:39;12.03;;;8.27;;
8213;SDS011;4148;47.974;7.824;2023-06-22T10:49:07;10.10;;;8.70;;
8213;SDS011;4148;47.974;7.824;2023-06-22T10:51:35;10.63;;;8.07;;
8213;SDS011;4148;47.974;7.824;2023-06-22T10:54:03;10.63;;;8.20;;
8213;SDS011;4148;47.974;7.824;2023-06-22T10:56:32;14.50;;;9.03;;
8213;SDS011;4148;47.974;7.824;2023-06-22T10:59:00;11.60;;;9.10;;
8213;SDS011;4148;47.974;7.824;2023-06-22T11:01:29;11.80;;;8.63;;
8213;SDS011;4148;47.974;7.824;2023-06-22T11:04:02;15.33;;;8.77;;
8213;SDS011;4148;47.974;7.824;2023-06-22T11:06:31;16.70;;;9.50;;
8213;SDS011;4148;47.974;7.824;2023-06-22T11:08:59;11.13;;;8.50;;
8213;SDS011;4148;47.974;7.824;2023-06-22T11:11:29;12.23;;;9.70;;
8213;SDS011;4148;47.974;7.824;2023-06-22T11:13:59;11.20;;;9.60;;
8213;SDS011;4148;47.974;7.824;2023-06-22T11:16:27;11.43;;;9.27;;
8213;SDS011;4148;47.974;7.824;2023-06-22T11:18:55;15.50;;;9.60;;
8213;SDS011;4148;47.974;7.824;2023-06-22T11:21:22;13.33;;;10.07;;
8213;SDS011;4148;47.974;7.824;2023-06-22T11:23:50;17.50;;;10.70;;
8213;SDS011;4148;47.974;7.824;2023-06-22T11:26:18;15.83;;;9.10;;
8213;SDS011;4148;47.974;7.824;2023-06-22T11:28:47;11.47;;;8.93;;
8213;SDS011;4148;47.974;7.824;2023-06-22T11:31:16;13.87;;;9.77;;
8213;SDS011;4148;47.974;7.824;2023-06-22T11:33:52;10.40;;;8.63;;
8213;SDS011;4148;47.974;7.824;2023-06-22T11:36:20;11.53;;;9.43;;
8213;SDS011;4148;47.974;7.824;2023-06-22T11:38:48;12.27;;;9.23;;
8213;SDS011;4148;47.974;7.824;2023-06-22T11:41:16;12.73;;;9.30;;
8213;SDS011;4148;47.974;7.824;2023-06-22T11:43:43;12.53;;;9.03;;
8213;SDS011;4148;47.974;7.824;2023-06-22T11:46:12;10.30;;;9.20;;
8213;SDS011;4148;47.974;7.824;2023-06-22T11:48:41;13.50;;;8.87;;
8213;SDS011;4148;47.974;7.824;2023-06-22T11:51:09;15.23;;;11.53;;
8213;SDS011;4148;47.974;7.824;2023-06-22T11:53:37;13.00;;;9.80;;
8213;SDS011;4148;47.974;7.824;2023-06-22T11:56:05;11.80;;;9.27;;
8213;SDS011;4148;47.974;7.824;2023-06-22T11:58:35;15.73;;;10.27;;
8213;SDS011;4148;47.974;7.824;2023-06-22T12:01:02;13.53;;;10.77;;
8213;SDS011;4148;47.974;7.824;2023-06-22T12:03:31;10.37;;;9.30;;
8213;SDS011;4148;47.974;7.824;2023-06-22T12:06:00;10.43;;;9.33;;
8213;SDS011;4148;47.974;7.824;2023-06-22T12:08:28;13.60;;;10.23;;
8213;SDS011;4148;47.974;7.824;2023-06-22T12:10:56;12.50;;;8.73;;
8213;SDS011;4148;47.974;7.824;2023-06-22T12:13:24;11.63;;;8.73;;
8213;SDS011;4148;47.974;7.824;2023-06-22T12:15:51;11.67;;;9.30;;
8213;SDS011;4148;47.974;7.824;2023-06-22T12:18:19;16.80;;;9.77;;
8213;SDS011;4148;47.974;7.824;2023-06-22T12:20:47;14.40;;;9.87;;
8213;SDS011;4148;47.974;7.824;2023-06-22T12:23:17;12.50;;;10.07;;
8213;SDS011;4148;47.974;7.824;2023-06-22T12:25:45;17.27;;;10.50;;
8213;SDS011;4148;47.974;7.824;2023-06-22T12:28:13;13.17;;;10.53;;
8213;SDS011;4148;47.974;7.824;2023-06-22T12:30:41;15.93;;;11.10;;
8213;SDS011;4148;47.974;7.824;2023-06-22T12:33:09;13.03;;;10.10;;
8213;SDS011;4148;47.974;7.824;2023-06-22T12:35:37;15.27;;;10.23;;
8213;SDS011;4148;47.974;7.824;2023-06-22T12:38:05;16.57;;;9.47;;
8213;SDS011;4148;47.974;7.824;2023-06-22T12:40:35;16.30;;;9.20;;
8213;SDS011;4148;47.974;7.824;2023-06-22T12:43:03;13.20;;;9.37;;
8213;SDS011;4148;47.974;7.824;2023-06-22T12:45:31;15.07;;;8.60;;
8213;SDS011;4148;47.974;7.824;2023-06-22T12:48:00;15.53;;;8.80;;
8213;SDS011;4148;47.974;7.824;2023-06-22T12:50:28;14.20;;;8.20;;
8213;SDS011;4148;47.974;7.824;2023-06-22T12:52:56;14.10;;;8.20;;
8213;SDS011;4148;47.974;7.824;2023-06-22T12:55:24;17.90;;;8.40;;
8213;SDS011;4148;47.974;7.824;2023-06-22T12:57:53;14.77;;;8.07;;
8213;SDS011;4148;47.974;7.824;2023-06-22T13:00:21;10.80;;;7.77;;
8213;SDS011;4148;47.974;7.824;2023-06-22T13:02:49;17.30;;;8.83;;
8213;SDS011;4148;47.974;7.824;2023-06-22T13:05:19;15.43;;;8.60;;
8213;SDS011;4148;47.974;7.824;2023-06-22T13:07:47;15.93;;;7.87;;
8213;SDS011;4148;47.974;7.824;2023-06-22T13:10:15;11.07;;;7.40;;
8213;SDS011;4148;47.974;7.824;2023-06-22T13:12:43;14.40;;;8.00;;
8213;SDS011;4148;47.974;7.824;2023-06-22T13:15:12;16.83;;;8.13;;
8213;SDS011;4148;47.974;7.824;2023-06-22T13:17:41;13.93;;;7.87;;
8213;SDS011;4148;47.974;7.824;2023-06-22T13:20:09;14.70;;;8.20;;
8213;SDS011;4148;47.974;7.824;2023-06-22T13:22:38;12.23;;;8.07;;
8213;SDS011;4148;47.974;7.824;2023-06-22T13:25:08;12.80;;;7.10;;
8213;SDS011;4148;47.974;7.824;2023-06-22T13:27:39;14.23;;;8.07;;
8213;SDS011;4148;47.974;7.824;2023-06-22T13:30:07;15.07;;;8.23;;
8213;SDS011;4148;47.974;7.824;2023-06-22T13:32:40;15.20;;;8.13;;
8213;SDS011;4148;47.974;7.824;2023-06-22T13:35:09;17.03;;;8.23;;
8213;SDS011;4148;47.974;7.824;2023-06-22T13:37:37;13.17;;;7.87;;
8213;SDS011;4148;47.974;7.824;2023-06-22T13:40:06;16.00;;;7.77;;
8213;SDS011;4148;47.974;7.824;2023-06-22T13:42:35;13.60;;;7.70;;
8213;SDS011;4148;47.974;7.824;2023-06-22T13:45:03;10.63;;;7.17;;
8213;SDS011;4148;47.974;7.824;2023-06-22T13:47:31;19.10;;;8.13;;
8213;SDS011;4148;47.974;7.824;2023-06-22T13:50:01;12.13;;;8.17;;
8213;SDS011;4148;47.974;7.824;2023-06-22T13:52:29;13.00;;;7.20;;
8213;SDS011;4148;47.974;7.824;2023-06-22T13:54:57;14.03;;;7.77;;
8213;SDS011;4148;47.974;7.824;2023-06-22T13:57:25;10.10;;;7.70;;
8213;SDS011;4148;47.974;7.824;2023-06-22T13:59:52;10.07;;;7.03;;
8213;SDS011;4148;47.974;7.824;2023-06-22T14:02:20;10.87;;;7.33;;
8213;SDS011;4148;47.974;7.824;2023-06-22T14:04:48;8.90;;;7.10;;
8213;SDS011;4148;47.974;7.824;2023-06-22T14:07:18;12.43;;;7.97;;
8213;SDS011;4148;47.974;7.824;2023-06-22T14:09:47;9.80;;;6.70;;
8213;SDS011;4148;47.974;7.824;2023-06-22T14:12:16;13.07;;;7.70;;
8213;SDS011;4148;47.974;7.824;2023-06-22T14:14:45;13.50;;;8.00;;
8213;SDS011;4148;47.974;7.824;2023-06-22T14:17:13;12.50;;;6.30;;
8213;SDS011;4148;47.974;7.824;2023-06-22T14:19:41;12.53;;;6.70;;
8213;SDS011;4148;47.974;7.824;2023-06-22T14:22:08;12.60;;;7.00;;
8213;SDS011;4148;47.974;7.824;2023-06-22T14:24:38;14.93;;;7.90;;
8213;SDS011;4148;47.974;7.824;2023-06-22T14:27:05;13.73;;;7.50;;
8213;SDS011;4148;47.974;7.824;2023-06-22T14:29:34;12.43;;;7.13;;
8213;SDS011;4148;47.974;7.824;2023-06-22T14:32:02;16.40;;;7.27;;
8213;SDS011;4148;47.974;7.824;2023-06-22T14:34:32;9.97;;;7.77;;
8213;SDS011;4148;47.974;7.824;2023-06-22T14:37:02;13.20;;;7.77;;
8213;SDS011;4148;47.974;7.824;2023-06-22T14:39:30;10.50;;;8.10;;
8213;SDS011;4148;47.974;7.824;2023-06-22T14:41:59;20.33;;;7.63;;
8213;SDS011;4148;47.974;7.824;2023-06-22T14:44:27;13.50;;;8.07;;
8213;SDS011;4148;47.974;7.824;2023-06-22T14:46:55;21.10;;;8.93;;
8213;SDS011;4148;47.974;7.824;2023-06-22T14:49:24;14.27;;;7.93;;
8213;SDS011;4148;47.974;7.824;2023-06-22T14:51:52;12.53;;;7.80;;
8213;SDS011;4148;47.974;7.824;2023-06-22T14:54:19;17.33;;;7.47;;
8213;SDS011;4148;47.974;7.824;2023-06-22T14:56:47;9.73;;;7.30;;
8213;SDS011;4148;47.974;7.824;2023-06-22T14:59:17;11.80;;;6.57;;
8213;SDS011;4148;47.974;7.824;2023-06-22T15:01:45;10.20;;;6.80;;
8213;SDS011;4148;47.974;7.824;2023-06-22T15:04:13;11.33;;;6.93;;
8213;SDS011;4148;47.974;7.824;2023-06-22T15:06:41;9.17;;;6.30;;
8213;SDS011;4148;47.974;7.824;2023-06-22T15:09:10;11.23;;;7.30;;
8213;SDS011;4148;47.974;7.824;2023-06-22T15:11:38;13.13;;;6.47;;